Time;durP1;ratioP1;P1;durP2;ratioP2;P2;SDS_P1;SDS_P2;PMS_P1;PMS_P2;Temp;Humidity;BMP_temperature;BMP_pressure;BME280_temperature;BME280_humidity;BME280_pressure;Samples;Min_cycle;Max_cycle;Signal;HPM_P1;HPM_P2
2022/12/29 07:59:52;;;;;;;1.90;1.37;;;8.20;94.20;;;;;;5138400;27;20282;-86
2022/12/29 08:02:18;;;;;;;1.20;1.00;;;8.30;94.40;;;;;;5135797;28;20247;-84
2022/12/29 08:04:44;;;;;;;1.60;1.50;;;8.40;94.30;;;;;;5135215;28;20192;-84
2022/12/29 08:07:09;;;;;;;2.73;1.30;;;8.40;94.30;;;;;;5136273;28;20237;-85
2022/12/29 08:09:35;;;;;;;3.03;1.37;;;8.40;94.40;;;;;;5136590;28;20197;-84
2022/12/29 08:12:00;;;;;;;3.30;1.30;;;8.50;94.20;;;;;;5134990;28;20183;-83
2022/12/29 08:14:26;;;;;;;1.97;1.00;;;8.50;94.30;;;;;;5135817;28;20175;-83
2022/12/29 08:16:52;;;;;;;1.33;1.00;;;8.50;94.40;;;;;;5134856;28;20183;-84
2022/12/29 08:19:17;;;;;;;1.60;1.07;;;8.50;94.30;;;;;;5134534;28;20639;-84
2022/12/29 08:21:43;;;;;;;2.17;0.97;;;8.60;94.20;;;;;;5135754;28;20183;-84
2022/12/29 08:24:09;;;;;;;1.83;1.03;;;8.60;93.80;;;;;;5133508;28;20187;-84
2022/12/29 08:26:35;;;;;;;2.77;0.90;;;8.70;93.90;;;;;;5134195;28;20264;-84
2022/12/29 08:29:00;;;;;;;2.07;1.10;;;8.90;93.40;;;;;;5134247;28;20223;-85
2022/12/29 08:31:26;;;;;;;2.10;0.90;;;9.20;93.40;;;;;;5133703;28;20185;-84
2022/12/29 08:33:52;;;;;;;3.50;3.07;;;9.50;92.10;;;;;;5135106;28;20178;-86
2022/12/29 08:36:17;;;;;;;2.27;1.57;;;9.80;92.20;;;;;;5133883;28;20188;-83
2022/12/29 08:38:43;;;;;;;2.63;1.17;;;10.00;90.50;;;;;;5141748;28;20212;-86
2022/12/29 08:41:09;;;;;;;5.40;2.10;;;9.80;91.00;;;;;;5132554;28;20260;-84
2022/12/29 08:43:34;;;;;;;5.97;2.93;;;9.70;91.00;;;;;;5132995;28;20171;-84
2022/12/29 08:46:00;;;;;;;6.20;2.00;;;9.50;90.90;;;;;;5133466;28;20559;-85
2022/12/29 08:48:27;;;;;;;1.60;1.30;;;9.40;91.00;;;;;;5132561;28;20218;-84
2022/12/29 08:50:53;;;;;;;1.53;1.30;;;8.90;91.30;;;;;;5131847;28;20172;-84
2022/12/29 08:53:19;;;;;;;1.87;1.50;;;8.10;92.00;;;;;;5131378;28;20648;-84
2022/12/29 08:55:46;;;;;;;3.50;1.60;;;7.70;93.10;;;;;;5130925;28;20178;-85
2022/12/29 08:58:14;;;;;;;2.00;1.50;;;7.80;93.10;;;;;;5132532;28;20262;-85
2022/12/29 09:00:41;;;;;;;2.87;1.20;;;8.00;92.70;;;;;;5135070;28;20230;-84
2022/12/29 09:03:07;;;;;;;4.90;2.27;;;8.10;92.40;;;;;;5136038;28;20518;-85
2022/12/29 09:05:32;;;;;;;1.83;1.27;;;8.00;92.90;;;;;;5136050;28;20178;-85
2022/12/29 09:07:58;;;;;;;1.70;1.10;;;7.80;92.80;;;;;;5137116;28;20589;-85
2022/12/29 09:10:23;;;;;;;2.60;1.37;;;7.50;93.30;;;;;;5125525;28;20622;-84
2022/12/29 09:12:49;;;;;;;3.30;1.50;;;7.20;94.00;;;;;;5120144;28;20649;-85
2022/12/29 09:15:15;;;;;;;5.67;1.20;;;7.10;94.70;;;;;;5122032;28;20175;-86
2022/12/29 09:17:45;;;;;;;1.77;1.40;;;6.90;94.80;;;;;;5121183;28;20195;-83
2022/12/29 09:20:16;;;;;;;2.37;1.07;;;6.80;94.90;;;;;;5106228;28;20211;-84
2022/12/29 09:22:43;;;;;;;1.77;1.30;;;6.80;95.10;;;;;;5122448;28;20633;-84
2022/12/29 09:25:10;;;;;;;1.80;1.50;;;6.80;95.70;;;;;;5123480;28;20201;-84
2022/12/29 09:27:36;;;;;;;1.77;1.30;;;6.80;95.50;;;;;;5121677;28;20180;-84
2022/12/29 09:30:06;;;;;;;1.63;0.90;;;6.80;95.70;;;;;;5123847;28;20223;-83
2022/12/29 09:32:32;;;;;;;1.30;1.13;;;6.80;95.90;;;;;;5122125;28;20218;-84
2022/12/29 09:34:58;;;;;;;2.47;1.63;;;6.90;96.10;;;;;;5120950;28;20183;-84
2022/12/29 09:37:23;;;;;;;1.53;1.30;;;6.80;96.20;;;;;;5121992;28;20177;-85
2022/12/29 09:39:49;;;;;;;2.13;1.30;;;6.90;96.20;;;;;;5122020;28;20215;-85
2022/12/29 09:42:22;;;;;;;3.53;1.30;;;6.90;96.60;;;;;;5120295;28;20229;-84
2022/12/29 09:45:08;;;;;;;2.17;1.93;;;7.00;96.80;;;;;;5121199;28;20184;-85
2022/12/29 09:47:34;;;;;;;1.33;1.23;;;7.00;96.70;;;;;;5121502;28;20184;-84
2022/12/29 09:50:08;;;;;;;2.03;1.40;;;7.10;96.80;;;;;;5122399;28;20204;-85
2022/12/29 09:52:48;;;;;;;1.50;1.40;;;7.30;96.90;;;;;;5122331;28;20177;-85
2022/12/29 09:55:18;;;;;;;1.50;1.23;;;7.40;96.60;;;;;;5122100;28;20166;-85
2022/12/29 09:58:01;;;;;;;3.30;1.90;;;7.50;96.30;;;;;;5124115;28;20188;-85
2022/12/29 10:00:54;;;;;;;1.63;1.27;;;7.60;96.70;;;;;;5123471;28;20228;-85
2022/12/29 10:03:22;;;;;;;2.63;1.60;;;7.70;96.40;;;;;;5121005;28;20203;-85
2022/12/29 10:05:51;;;;;;;4.20;1.40;;;7.80;96.40;;;;;;5119986;28;20623;-85
2022/12/29 10:08:36;;;;;;;3.73;2.00;;;7.90;95.80;;;;;;5120416;28;20527;-85
2022/12/29 10:11:43;;;;;;;3.80;1.87;;;7.90;95.60;;;;;;5121544;28;20183;-83
2022/12/29 10:14:11;;;;;;;4.57;2.00;;;8.00;95.70;;;;;;5065209;28;20199;-84
2022/12/29 10:16:54;;;;;;;5.27;3.47;;;8.10;95.30;;;;;;5117160;28;20322;-84
2022/12/29 10:19:29;;;;;;;9.47;4.03;;;8.30;96.10;;;;;;5120307;28;20218;-85
2022/12/29 10:22:17;;;;;;;6.83;4.63;;;8.40;95.10;;;;;;5118933;28;20182;-86
2022/12/29 10:24:47;;;;;;;4.07;3.07;;;8.60;94.70;;;;;;5121762;28;20198;-86
2022/12/29 10:27:16;;;;;;;2.47;2.10;;;8.70;93.90;;;;;;5122105;28;20247;-87
2022/12/29 10:29:52;;;;;;;2.53;2.03;;;8.70;94.10;;;;;;5121113;28;20307;-84
2022/12/29 10:32:20;;;;;;;2.03;1.60;;;8.60;93.80;;;;;;5123358;28;20185;-85
2022/12/29 10:34:52;;;;;;;3.10;2.37;;;8.60;93.80;;;;;;5123310;28;20180;-84
2022/12/29 10:37:44;;;;;;;4.03;2.60;;;8.70;94.30;;;;;;5125313;28;20163;-84
2022/12/29 10:40:40;;;;;;;4.30;2.40;;;8.80;94.30;;;;;;5123124;28;20229;-85
2022/12/29 10:43:31;;;;;;;2.83;2.07;;;8.80;94.30;;;;;;5086550;28;20190;-86
2022/12/29 10:46:05;;;;;;;3.83;1.93;;;8.70;95.00;;;;;;5133033;28;20217;-85
2022/12/29 10:48:33;;;;;;;3.13;2.00;;;8.60;94.10;;;;;;5136754;28;20186;-84
2022/12/29 10:51:02;;;;;;;3.37;2.03;;;8.50;94.90;;;;;;5134639;28;20264;-84
2022/12/29 10:53:45;;;;;;;3.13;2.20;;;8.40;95.00;;;;;;5135750;28;20172;-84
2022/12/29 10:56:38;;;;;;;3.40;2.20;;;8.30;95.40;;;;;;5130190;28;20203;-84
2022/12/29 10:59:23;;;;;;;4.07;2.50;;;8.30;95.40;;;;;;5119187;28;20263;-84
2022/12/29 11:01:52;;;;;;;3.37;2.47;;;8.30;95.30;;;;;;5122558;28;20167;-83
2022/12/29 11:04:59;;;;;;;5.37;2.57;;;8.30;95.40;;;;;;5121101;28;20174;-84
2022/12/29 11:07:25;;;;;;;3.70;2.43;;;8.60;95.30;;;;;;5048424;28;20205;-85
2022/12/29 11:09:52;;;;;;;3.50;2.10;;;9.00;95.00;;;;;;5120645;28;20195;-85
2022/12/29 11:12:21;;;;;;;6.27;3.50;;;9.50;94.10;;;;;;5120765;28;20289;-85
2022/12/29 11:14:46;;;;;;;4.97;2.47;;;9.90;93.70;;;;;;5118214;28;20179;-85
2022/12/29 11:17:17;;;;;;;3.03;2.13;;;10.20;92.20;;;;;;5118268;28;20202;-83
2022/12/29 11:19:43;;;;;;;3.60;2.40;;;10.40;92.20;;;;;;5120362;28;20306;-83
2022/12/29 11:22:26;;;;;;;3.20;1.97;;;10.80;91.50;;;;;;5120892;28;20604;-85
2022/12/29 11:24:54;;;;;;;4.93;2.20;;;11.10;90.30;;;;;;5120089;28;20178;-85
2022/12/29 11:27:25;;;;;;;5.07;3.37;;;11.40;90.30;;;;;;5120035;28;20199;-85
2022/12/29 11:29:53;;;;;;;6.93;2.70;;;11.80;91.30;;;;;;5119428;28;20204;-86
2022/12/29 11:32:19;;;;;;;3.27;2.43;;;12.60;90.10;;;;;;5119077;28;20531;-86
2022/12/29 11:34:45;;;;;;;5.07;3.47;;;13.20;88.90;;;;;;5119109;28;20170;-86
2022/12/29 11:37:25;;;;;;;3.27;2.00;;;13.50;86.30;;;;;;5117982;28;20181;-84
2022/12/29 11:39:59;;;;;;;2.90;2.03;;;13.20;88.30;;;;;;5117761;28;20236;-84
2022/12/29 11:42:47;;;;;;;1.80;1.40;;;13.50;89.70;;;;;;5117306;28;20207;-84
2022/12/29 11:45:19;;;;;;;4.43;2.30;;;13.90;88.70;;;;;;5118205;28;20182;-82
2022/12/29 11:47:56;;;;;;;2.63;2.20;;;13.90;86.30;;;;;;5119610;28;20248;-85
2022/12/29 11:50:29;;;;;;;2.70;1.70;;;13.80;88.50;;;;;;5118200;28;20175;-85
2022/12/29 11:53:07;;;;;;;1.80;1.00;;;14.00;89.10;;;;;;5119166;28;20185;-86
2022/12/29 11:55:33;;;;;;;4.60;1.67;;;14.30;88.60;;;;;;5125141;28;20182;-84
2022/12/29 11:58:03;;;;;;;2.60;1.20;;;14.60;88.30;;;;;;5116757;28;20207;-85
2022/12/29 12:00:32;;;;;;;2.20;0.83;;;14.60;88.40;;;;;;5119425;28;20651;-83
2022/12/29 12:03:16;;;;;;;2.37;1.10;;;14.40;87.80;;;;;;5118464;28;20179;-85
2022/12/29 12:05:54;;;;;;;2.00;1.30;;;14.00;89.80;;;;;;5118242;28;20216;-86
2022/12/29 12:08:41;;;;;;;1.20;1.10;;;13.80;90.20;;;;;;5117206;28;20664;-85
2022/12/29 12:11:24;;;;;;;0.70;0.70;;;13.50;90.80;;;;;;5120500;28;20215;-83
2022/12/29 12:14:19;;;;;;;1.90;1.10;;;13.10;91.00;;;;;;5122409;28;20156;-85
2022/12/29 12:16:50;;;;;;;1.17;0.90;;;12.90;91.80;;;;;;5122486;28;20178;-83
2022/12/29 12:19:31;;;;;;;2.20;1.30;;;12.80;91.80;;;;;;5125007;28;20200;-83
2022/12/29 12:22:21;;;;;;;1.70;1.00;;;12.70;91.80;;;;;;5118832;28;20180;-85
2022/12/29 12:25:24;;;;;;;1.67;1.50;;;12.70;91.80;;;;;;5121555;28;20199;-83
2022/12/29 12:28:00;;;;;;;1.30;1.20;;;12.70;91.50;;;;;;5119679;28;20157;-84
2022/12/29 12:30:29;;;;;;;0.70;0.70;;;12.60;91.50;;;;;;5123528;28;20201;-85
2022/12/29 12:33:23;;;;;;;4.43;2.50;;;12.70;92.00;;;;;;5122897;28;20187;-86
2022/12/29 12:36:16;;;;;;;3.30;2.53;;;12.80;92.00;;;;;;5122375;28;20200;-87
2022/12/29 12:39:00;;;;;;;8.40;4.93;;;13.10;91.60;;;;;;5110456;28;20212;-87
2022/12/29 12:42:08;;;;;;;11.07;5.17;;;13.20;91.00;;;;;;5113479;28;20183;-87
2022/12/29 12:44:52;;;;;;;1.67;1.10;;;13.20;91.20;;;;;;5102483;28;20180;-86
2022/12/29 12:47:42;;;;;;;1.50;0.80;;;13.20;91.40;;;;;;5106457;28;20271;-86
2022/12/29 12:50:47;;;;;;;0.80;0.63;;;13.10;91.20;;;;;;5102224;28;20340;-85
2022/12/29 12:53:41;;;;;;;4.97;1.80;;;12.80;91.40;;;;;;5094418;28;20283;-84
2022/12/29 12:56:22;;;;;;;6.90;4.70;;;12.60;91.60;;;;;;5102233;28;20168;-84
2022/12/29 12:58:51;;;;;;;1.47;1.13;;;12.60;91.70;;;;;;5102893;28;20227;-86
2022/12/29 13:01:38;;;;;;;1.47;1.23;;;12.60;91.10;;;;;;5100176;28;20176;-85
2022/12/29 13:04:15;;;;;;;1.93;1.13;;;12.60;90.80;;;;;;5102789;28;20209;-84
2022/12/29 13:06:56;;;;;;;2.77;1.30;;;12.60;90.80;;;;;;5100709;28;20200;-84
2022/12/29 13:09:25;;;;;;;1.73;1.30;;;12.70;91.00;;;;;;5100327;28;20196;-84
2022/12/29 13:12:00;;;;;;;1.47;1.30;;;12.70;91.10;;;;;;5100424;28;20264;-84
2022/12/29 13:14:50;;;;;;;1.50;1.10;;;12.70;91.60;;;;;;5100907;28;20224;-84
2022/12/29 13:17:30;;;;;;;2.03;1.17;;;12.60;90.90;;;;;;5099771;28;20172;-85
2022/12/29 13:20:11;;;;;;;3.47;2.23;;;12.50;90.70;;;;;;5119149;28;20211;-85
2022/12/29 13:22:56;;;;;;;1.83;1.67;;;12.40;90.80;;;;;;5121287;28;20184;-85
2022/12/29 13:25:31;;;;;;;5.87;3.70;;;12.40;90.90;;;;;;5121173;28;20187;-84
2022/12/29 13:28:03;;;;;;;2.30;1.53;;;12.40;90.80;;;;;;5119920;28;20521;-83
2022/12/29 13:30:51;;;;;;;1.93;1.70;;;12.30;90.80;;;;;;5121015;28;20186;-83
2022/12/29 13:33:43;;;;;;;5.03;3.00;;;12.30;90.90;;;;;;5112700;28;20188;-84
2022/12/29 13:36:26;;;;;;;26.10;16.30;;;12.30;91.60;;;;;;5100562;28;20242;-84
2022/12/29 13:39:03;;;;;;;2.97;1.90;;;12.20;91.10;;;;;;5100411;28;20673;-84
2022/12/29 13:41:39;;;;;;;8.20;5.47;;;12.10;91.20;;;;;;5101286;28;20174;-85
2022/12/29 13:44:06;;;;;;;15.27;8.97;;;12.00;91.30;;;;;;5104137;28;20176;-86
2022/12/29 13:46:40;;;;;;;19.80;9.60;;;11.90;91.30;;;;;;5101381;28;20180;-85
2022/12/29 13:49:25;;;;;;;20.57;13.20;;;11.90;91.90;;;;;;5105035;28;20216;-85
2022/12/29 13:51:53;;;;;;;5.73;3.97;;;11.80;92.20;;;;;;5124012;28;20198;-84
2022/12/29 13:54:42;;;;;;;3.20;2.43;;;11.70;92.20;;;;;;5123457;28;20175;-84
2022/12/29 13:57:39;;;;;;;3.23;2.33;;;11.60;92.20;;;;;;5134074;28;20243;-84
2022/12/29 14:00:12;;;;;;;2.43;1.83;;;11.60;92.40;;;;;;5134090;28;20199;-83
2022/12/29 14:03:19;;;;;;;2.93;1.90;;;11.50;92.70;;;;;;5109256;28;20188;-83
2022/12/29 14:05:47;;;;;;;3.33;1.67;;;11.40;92.80;;;;;;5099123;28;20283;-85
2022/12/29 14:08:17;;;;;;;3.03;1.87;;;11.40;92.70;;;;;;5101559;28;20215;-84
2022/12/29 14:10:51;;;;;;;9.70;5.37;;;11.30;93.10;;;;;;5105615;27;20207;-86
2022/12/29 14:13:25;;;;;;;6.10;4.70;;;11.30;93.30;;;;;;5126167;27;20171;-86
2022/12/29 14:15:59;;;;;;;10.07;6.30;;;11.20;93.40;;;;;;5119096;27;20241;-85
2022/12/29 14:18:30;;;;;;;6.73;4.37;;;11.20;93.70;;;;;;5099692;28;20616;-85
2022/12/29 14:21:27;;;;;;;8.27;6.00;;;11.10;93.90;;;;;;5104930;28;20243;-85
2022/12/29 14:23:53;;;;;;;12.13;8.43;;;11.00;94.30;;;;;;5107867;28;20195;-84
2022/12/29 14:26:28;;;;;;;23.90;14.67;;;10.90;94.60;;;;;;5110425;28;20197;-87
2022/12/29 14:28:54;;;;;;;54.97;29.47;;;10.90;95.10;;;;;;5118623;28;20202;-85
2022/12/29 14:31:29;;;;;;;88.03;50.60;;;10.90;95.20;;;;;;5118958;28;20183;-84
2022/12/29 14:34:07;;;;;;;17.47;12.10;;;10.80;95.60;;;;;;5119006;28;20274;-84
2022/12/29 14:36:39;;;;;;;19.10;12.87;;;10.80;96.20;;;;;;5119970;28;20186;-83
2022/12/29 14:39:28;;;;;;;16.80;12.03;;;10.70;96.40;;;;;;5122043;28;20651;-84
2022/12/29 14:42:15;;;;;;;12.37;8.27;;;10.70;96.60;;;;;;5112017;28;20184;-84
2022/12/29 14:45:12;;;;;;;5.70;3.30;;;10.70;96.80;;;;;;5105114;28;20188;-86
2022/12/29 14:47:43;;;;;;;10.17;6.80;;;10.70;97.00;;;;;;5113547;28;20236;-85
2022/12/29 14:50:21;;;;;;;7.37;4.93;;;10.70;97.50;;;;;;5119687;28;20199;-85
2022/12/29 14:52:57;;;;;;;14.57;9.30;;;10.60;97.60;;;;;;5120395;28;20175;-85
2022/12/29 14:55:43;;;;;;;19.87;14.13;;;10.50;97.80;;;;;;5119889;28;20265;-84
2022/12/29 14:58:18;;;;;;;9.60;7.00;;;10.50;98.10;;;;;;5117318;28;20259;-85
2022/12/29 15:00:45;;;;;;;9.30;6.37;;;10.50;98.40;;;;;;5117633;28;20270;-85
2022/12/29 15:03:24;;;;;;;6.53;5.00;;;10.50;98.60;;;;;;5117607;28;20249;-84
2022/12/29 15:05:57;;;;;;;8.23;5.33;;;10.40;98.90;;;;;;5118267;28;20172;-85
2022/12/29 15:08:27;;;;;;;5.07;3.43;;;10.40;99.20;;;;;;5118492;28;20278;-85
2022/12/29 15:10:58;;;;;;;7.07;4.97;;;10.30;99.20;;;;;;5120995;28;20171;-84
2022/12/29 15:13:32;;;;;;;3.50;2.90;;;10.30;99.60;;;;;;5121412;28;20184;-84
2022/12/29 15:15:58;;;;;;;14.27;7.33;;;10.20;99.70;;;;;;5119021;28;20183;-84
2022/12/29 15:18:30;;;;;;;31.40;21.63;;;10.20;99.90;;;;;;5119270;28;20258;-84
2022/12/29 15:20:59;;;;;;;11.63;7.87;;;10.20;99.90;;;;;;5119400;28;20186;-84
2022/12/29 15:23:25;;;;;;;14.90;10.80;;;10.10;99.90;;;;;;5120176;28;20218;-84
2022/12/29 15:25:57;;;;;;;19.03;11.87;;;10.10;99.90;;;;;;5121435;28;20172;-84
2022/12/29 15:28:23;;;;;;;5.80;3.93;;;10.10;99.90;;;;;;5118486;28;20691;-85
2022/12/29 15:31:02;;;;;;;2.80;2.60;;;10.10;99.90;;;;;;5118643;28;20284;-85
2022/12/29 15:33:28;;;;;;;11.80;7.30;;;10.10;99.90;;;;;;5121380;28;20604;-84
2022/12/29 15:35:56;;;;;;;39.47;17.33;;;10.00;99.90;;;;;;5120163;28;20535;-85
2022/12/29 15:38:26;;;;;;;35.30;13.63;;;10.00;99.90;;;;;;5120944;28;20236;-85
2022/12/29 15:41:00;;;;;;;17.27;7.73;;;10.00;99.90;;;;;;5121570;28;20238;-84
2022/12/29 15:43:35;;;;;;;3.60;3.03;;;9.90;99.90;;;;;;5120493;28;20174;-84
2022/12/29 15:46:01;;;;;;;6.20;4.00;;;9.90;99.90;;;;;;5121385;28;20179;-85
2022/12/29 15:48:28;;;;;;;9.63;5.70;;;9.90;99.90;;;;;;5121073;28;20202;-84
2022/12/29 15:50:53;;;;;;;16.07;9.50;;;9.90;99.90;;;;;;5124821;28;20176;-85
2022/12/29 15:53:29;;;;;;;8.33;4.17;;;9.80;99.90;;;;;;5123564;28;20182;-85
2022/12/29 15:56:10;;;;;;;5.23;3.03;;;9.80;99.90;;;;;;5124487;28;20530;-85
2022/12/29 15:58:48;;;;;;;5.97;3.60;;;9.70;99.90;;;;;;5123971;28;20250;-84
2022/12/29 16:01:37;;;;;;;5.80;4.27;;;9.70;99.90;;;;;;5125288;28;20190;-84
2022/12/29 16:04:08;;;;;;;8.40;4.93;;;9.70;99.90;;;;;;5121678;28;20179;-84
2022/12/29 16:06:36;;;;;;;10.77;3.73;;;9.60;99.90;;;;;;5129390;28;20183;-84
2022/12/29 16:09:02;;;;;;;7.40;4.60;;;9.60;99.90;;;;;;5119920;28;20191;-84
2022/12/29 16:11:32;;;;;;;11.40;4.60;;;9.50;99.90;;;;;;5118818;28;20243;-84
2022/12/29 16:13:58;;;;;;;14.70;8.70;;;9.50;99.90;;;;;;5117558;28;20533;-84
2022/12/29 16:16:28;;;;;;;16.83;8.03;;;9.50;99.90;;;;;;5118328;28;20249;-83
2022/12/29 16:18:54;;;;;;;23.90;12.93;;;9.40;99.90;;;;;;5117690;28;20214;-84
2022/12/29 16:21:32;;;;;;;40.00;19.13;;;9.40;99.90;;;;;;5122889;28;20528;-84
2022/12/29 16:24:04;;;;;;;40.50;19.40;;;9.30;99.90;;;;;;5123266;28;20223;-84
2022/12/29 16:26:29;;;;;;;27.80;14.73;;;9.20;99.90;;;;;;5121747;28;20171;-84
2022/12/29 16:28:58;;;;;;;12.03;8.03;;;9.10;99.90;;;;;;5120945;28;20205;-84
2022/12/29 16:31:59;;;;;;;28.13;16.40;;;9.00;99.90;;;;;;5122057;28;20183;-84
2022/12/29 16:34:37;;;;;;;11.60;6.20;;;8.90;99.90;;;;;;5116032;28;20190;-83
2022/12/29 16:37:21;;;;;;;23.37;13.40;;;8.80;99.90;;;;;;5121660;28;20183;-83
2022/12/29 16:39:47;;;;;;;31.20;16.20;;;8.70;99.90;;;;;;5121604;28;20206;-84
2022/12/29 16:42:36;;;;;;;33.10;19.40;;;8.60;99.90;;;;;;5120551;28;20182;-83
2022/12/29 16:45:20;;;;;;;33.87;20.10;;;8.60;99.90;;;;;;5121515;28;20172;-84
2022/12/29 16:48:15;;;;;;;29.80;19.87;;;8.50;99.90;;;;;;5120866;28;20183;-83
2022/12/29 16:50:43;;;;;;;49.40;26.90;;;8.40;99.90;;;;;;5120172;28;20187;-84
2022/12/29 16:53:27;;;;;;;64.67;30.97;;;8.50;99.90;;;;;;5119997;28;20218;-84
